createdAt,value
2019-05-11T00:01:37.896Z,12.27
2019-05-11T00:04:09.109Z,12.27
2019-05-11T00:06:40.111Z,12.24
2019-05-11T00:09:11.369Z,12.18
2019-05-11T00:11:42.959Z,12.23
2019-05-11T00:14:14.070Z,12.28
2019-05-11T00:16:45.286Z,12.21
2019-05-11T00:19:16.738Z,12.26
2019-05-11T00:21:47.679Z,12.25
2019-05-11T00:24:18.819Z,12.27
2019-05-11T00:26:49.965Z,12.29
2019-05-11T00:29:21.153Z,12.27
2019-05-11T00:31:52.366Z,12.30
2019-05-11T00:34:23.491Z,12.31
2019-05-11T00:36:54.696Z,12.25
2019-05-11T00:39:25.902Z,12.25
2019-05-11T00:41:57.195Z,12.28
2019-05-11T00:44:28.320Z,12.32
2019-05-11T00:47:04.129Z,12.32
2019-05-11T00:49:35.318Z,12.34
2019-05-11T00:52:06.521Z,12.32
2019-05-11T00:54:37.559Z,12.34
2019-05-11T00:57:08.476Z,12.38
2019-05-11T00:59:39.770Z,12.38
2019-05-11T01:02:10.878Z,12.37
2019-05-11T01:04:41.969Z,12.37
2019-05-11T01:07:13.382Z,12.32
2019-05-11T01:09:44.581Z,12.30
2019-05-11T01:12:15.911Z,12.33
2019-05-11T01:14:48.616Z,12.36
2019-05-11T01:17:19.627Z,12.32
2019-05-11T01:19:50.749Z,12.35
2019-05-11T01:22:21.837Z,12.35
2019-05-11T01:24:52.752Z,12.38
2019-05-11T01:27:23.773Z,12.38
2019-05-11T01:29:54.887Z,12.41
2019-05-11T01:32:25.863Z,12.43
2019-05-11T01:34:56.869Z,12.42
2019-05-11T01:37:28.360Z,12.35
2019-05-11T01:39:59.473Z,12.33
2019-05-11T01:42:30.543Z,12.26
2019-05-11T01:45:01.760Z,12.21
2019-05-11T01:47:32.880Z,12.17
2019-05-11T01:50:04.478Z,12.09
2019-05-11T01:52:35.632Z,12.12
2019-05-11T01:55:07.466Z,12.11
2019-05-11T01:57:38.535Z,12.05
2019-05-11T02:00:11.704Z,12.08
2019-05-11T02:02:43.038Z,12.05
2019-05-11T02:05:30.238Z,12.05
2019-05-11T02:08:03.125Z,12.02
2019-05-11T02:10:34.700Z,11.98
2019-05-11T02:13:05.738Z,11.97
2019-05-11T02:15:36.910Z,11.94
2019-05-11T02:18:08.146Z,11.96
2019-05-11T02:20:39.248Z,11.96
2019-05-11T02:23:10.334Z,11.96
2019-05-11T02:25:41.456Z,11.93
2019-05-11T02:28:12.510Z,11.90
2019-05-11T02:30:43.840Z,11.87
2019-05-11T02:33:15.173Z,11.84
2019-05-11T02:35:46.294Z,11.81
2019-05-11T02:38:17.286Z,11.76
2019-05-11T02:40:48.498Z,11.75
2019-05-11T02:43:19.725Z,11.73
2019-05-11T02:45:50.963Z,11.69
2019-05-11T02:48:22.221Z,11.67
2019-05-11T02:50:55.791Z,11.66
2019-05-11T02:53:30.034Z,11.66
2019-05-11T02:56:03.851Z,11.56
2019-05-11T02:58:36.444Z,11.58
2019-05-11T03:01:09.038Z,11.58
2019-05-11T03:03:40.223Z,11.59
2019-05-11T03:06:12.831Z,11.58
2019-05-11T03:08:44.027Z,11.60
2019-05-11T03:11:15.189Z,11.59
2019-05-11T03:13:46.356Z,11.56
2019-05-11T03:16:17.300Z,11.54
2019-05-11T03:18:48.567Z,11.49
2019-05-11T03:21:19.821Z,11.49
2019-05-11T03:23:51.223Z,11.50
2019-05-11T03:26:22.267Z,11.46
2019-05-11T03:28:53.537Z,11.41
2019-05-11T03:31:24.526Z,11.35
2019-05-11T03:33:57.381Z,11.37
2019-05-11T03:36:28.330Z,11.35
2019-05-11T03:38:59.512Z,11.32
2019-05-11T03:41:30.350Z,11.33
2019-05-11T03:44:01.521Z,11.35
2019-05-11T03:46:32.815Z,11.32
2019-05-11T03:49:03.997Z,11.29
2019-05-11T03:51:35.029Z,11.27
2019-05-11T03:54:06.197Z,11.23
2019-05-11T03:56:37.019Z,11.26
2019-05-11T03:59:08.047Z,11.25
2019-05-11T04:01:39.392Z,11.22
2019-05-11T04:04:10.587Z,11.24
2019-05-11T04:06:41.788Z,11.25
2019-05-11T04:09:13.166Z,11.27
2019-05-11T04:11:44.250Z,11.25
2019-05-11T04:14:15.150Z,11.29
2019-05-11T04:16:46.273Z,11.28
2019-05-11T04:19:17.523Z,11.26
2019-05-11T04:21:48.791Z,11.29
2019-05-11T04:24:19.915Z,11.27
2019-05-11T04:26:50.981Z,11.25
2019-05-11T04:29:22.229Z,11.29
2019-05-11T04:31:53.459Z,11.35
2019-05-11T04:34:24.589Z,11.41
2019-05-11T04:36:55.930Z,11.44
2019-05-11T04:39:26.945Z,11.45
2019-05-11T04:41:57.928Z,11.51
2019-05-11T04:44:29.182Z,11.59
2019-05-11T04:47:00.983Z,11.62
2019-05-11T04:49:32.127Z,11.63
2019-05-11T04:52:03.096Z,11.68
2019-05-11T04:54:34.151Z,11.70
2019-05-11T04:57:05.319Z,11.74
2019-05-11T04:59:36.381Z,11.80
2019-05-11T05:02:07.476Z,11.79
2019-05-11T05:04:38.343Z,11.85
2019-05-11T05:07:10.733Z,11.92
2019-05-11T05:09:44.755Z,11.95
2019-05-11T05:12:15.983Z,12.02
2019-05-11T05:14:46.925Z,12.08
2019-05-11T05:17:18.174Z,12.14
2019-05-11T05:19:49.315Z,12.24
2019-05-11T05:22:20.615Z,12.42
2019-05-11T05:24:51.837Z,12.56
2019-05-11T05:27:23.042Z,12.60
2019-05-11T05:29:54.048Z,12.67
2019-05-11T05:32:42.864Z,12.75
2019-05-11T05:35:14.108Z,12.72
2019-05-11T05:37:45.128Z,12.64
2019-05-11T05:40:16.539Z,12.63
2019-05-11T05:42:47.575Z,12.64
2019-05-11T05:45:19.097Z,12.72
2019-05-11T05:47:50.081Z,12.83
2019-05-11T05:50:21.154Z,12.92
2019-05-11T05:52:52.303Z,12.94
2019-05-11T05:55:23.565Z,12.93
2019-05-11T05:57:54.939Z,13.04
2019-05-11T06:00:26.650Z,13.14
2019-05-11T06:02:57.735Z,13.19
2019-05-11T06:05:29.086Z,13.30
2019-05-11T06:08:00.334Z,13.33
2019-05-11T06:10:31.953Z,13.42
2019-05-11T06:13:04.537Z,13.52
2019-05-11T06:15:35.887Z,13.61
2019-05-11T06:18:07.522Z,13.59
2019-05-11T06:20:38.537Z,13.69
2019-05-11T06:23:09.590Z,13.85
2019-05-11T06:25:40.926Z,13.99
2019-05-11T06:28:12.081Z,14.16
2019-05-11T06:30:43.281Z,14.29
2019-05-11T06:33:14.564Z,14.36
2019-05-11T06:35:45.787Z,14.50
2019-05-11T06:38:16.886Z,14.57
2019-05-11T06:40:48.022Z,14.69
2019-05-11T06:43:19.384Z,14.80
2019-05-11T06:45:51.944Z,14.93
2019-05-11T06:48:23.169Z,15.04
2019-05-11T06:50:54.179Z,15.23
2019-05-11T06:53:25.464Z,15.24
2019-05-11T06:55:56.584Z,15.46
2019-05-11T06:58:27.744Z,15.58
2019-05-11T07:00:58.872Z,15.76
2019-05-11T07:03:30.064Z,15.77
2019-05-11T07:06:01.424Z,15.92
2019-05-11T07:08:32.428Z,16.07
2019-05-11T07:11:03.801Z,16.14
2019-05-11T07:13:35.122Z,16.30
2019-05-11T07:16:06.556Z,16.39
2019-05-11T07:18:37.620Z,16.46
2019-05-11T07:21:08.840Z,16.60
2019-05-11T07:23:40.035Z,16.79
2019-05-11T07:26:11.167Z,16.86
2019-05-11T07:28:44.036Z,16.93
2019-05-11T07:31:15.184Z,17.05
2019-05-11T07:33:48.489Z,17.14
2019-05-11T07:36:19.319Z,17.27
2019-05-11T07:38:50.493Z,17.37
2019-05-11T07:41:21.524Z,17.44
2019-05-11T07:43:53.054Z,17.60
2019-05-11T07:46:24.158Z,17.65
2019-05-11T07:48:55.233Z,17.86
2019-05-11T07:51:28.794Z,18.03
2019-05-11T07:53:59.948Z,18.14
2019-05-11T07:56:31.022Z,18.32
2019-05-11T07:59:02.154Z,18.44
2019-05-11T08:01:33.334Z,18.60
2019-05-11T08:04:05.149Z,18.86
2019-05-11T08:06:36.308Z,19.10
2019-05-11T08:09:08.719Z,19.31
2019-05-11T08:11:39.838Z,19.60
2019-05-11T08:14:11.286Z,19.72
2019-05-11T08:16:42.431Z,19.94
2019-05-11T08:19:13.813Z,20.30
2019-05-11T08:21:44.767Z,20.67
2019-05-11T08:24:17.942Z,21.09
2019-05-11T08:26:48.748Z,21.39
2019-05-11T08:29:20.014Z,21.43
2019-05-11T08:31:51.080Z,21.29
2019-05-11T08:34:22.086Z,21.19
2019-05-11T08:36:53.841Z,21.23
2019-05-11T08:39:25.092Z,21.17
2019-05-11T08:41:56.738Z,21.68
2019-05-11T08:44:29.045Z,21.78
2019-05-11T08:47:00.380Z,22.33
2019-05-11T08:49:31.304Z,22.77
2019-05-11T08:52:03.066Z,23.18
2019-05-11T08:54:34.455Z,23.38
2019-05-11T08:59:37.922Z,23.12
2019-05-11T09:02:08.451Z,22.70
2019-05-11T09:04:42.079Z,22.78
2019-05-11T09:07:12.613Z,22.76
2019-05-11T09:09:43.670Z,23.12
2019-05-11T09:12:15.223Z,23.47
2019-05-11T09:14:47.835Z,23.66
2019-05-11T09:17:19.121Z,23.72
2019-05-11T09:19:50.398Z,24.05
2019-05-11T09:22:21.330Z,23.70
2019-05-11T09:24:52.365Z,23.72
2019-05-11T09:27:23.439Z,24.48
2019-05-11T09:29:55.061Z,28.37
2019-05-11T09:32:28.514Z,36.65
2019-05-11T09:34:59.296Z,42.56
2019-05-11T09:37:30.542Z,47.21
2019-05-11T09:40:01.663Z,45.31
2019-05-11T09:42:32.877Z,42.22
2019-05-11T09:45:04.847Z,49.70
2019-05-11T09:47:38.418Z,53.90
2019-05-11T09:50:09.306Z,56.22
2019-05-11T09:52:40.621Z,57.07
2019-05-11T09:55:12.363Z,58.94
2019-05-11T09:57:43.609Z,60.18
2019-05-11T10:00:17.904Z,61.43
2019-05-11T10:02:49.122Z,61.95
2019-05-11T10:05:20.385Z,62.73
2019-05-11T10:07:51.667Z,63.61
2019-05-11T10:10:22.873Z,61.42
2019-05-11T10:12:54.000Z,60.19
2019-05-11T10:15:25.185Z,61.76
2019-05-11T10:17:58.219Z,60.24
2019-05-11T10:20:29.313Z,57.77
2019-05-11T10:23:00.402Z,59.30
2019-05-11T10:25:31.475Z,53.57
2019-05-11T10:28:02.723Z,56.12
2019-05-11T10:30:33.879Z,56.70
2019-05-11T10:33:05.283Z,59.35
2019-05-11T10:35:37.831Z,62.11
2019-05-11T10:38:09.234Z,60.93
2019-05-11T10:40:40.387Z,62.13
2019-05-11T10:43:11.597Z,62.28
2019-05-11T10:45:42.504Z,62.21
2019-05-11T10:48:13.551Z,52.95
2019-05-11T10:50:45.331Z,46.16
2019-05-11T10:53:18.502Z,43.06
2019-05-11T10:55:49.507Z,40.86
2019-05-11T10:58:20.663Z,39.42
2019-05-11T11:00:52.019Z,38.24
2019-05-11T11:03:23.637Z,36.79
2019-05-11T11:05:54.801Z,35.87
2019-05-11T11:08:27.871Z,34.60
2019-05-11T11:10:59.165Z,34.00
2019-05-11T11:13:30.361Z,33.09
2019-05-11T11:16:02.121Z,32.20
2019-05-11T11:18:33.331Z,31.55
2019-05-11T11:21:04.560Z,30.69
2019-05-11T11:23:35.646Z,30.20
2019-05-11T11:26:08.231Z,29.72
2019-05-11T11:28:40.024Z,29.36
2019-05-11T11:31:11.076Z,28.89
2019-05-11T11:33:42.268Z,29.09
2019-05-11T11:36:13.536Z,29.15
2019-05-11T11:38:44.757Z,29.28
2019-05-11T11:41:17.859Z,28.92
2019-05-11T11:43:48.641Z,28.92
2019-05-11T11:46:19.993Z,28.77
2019-05-11T11:48:51.036Z,28.62
2019-05-11T11:51:22.482Z,28.15
2019-05-11T11:53:53.716Z,27.82
2019-05-11T11:56:25.318Z,27.85
2019-05-11T11:58:57.911Z,27.59
2019-05-11T12:01:29.453Z,27.46
2019-05-11T12:04:00.372Z,27.40
2019-05-11T12:06:32.976Z,27.31
2019-05-11T12:09:08.507Z,27.50
2019-05-11T12:11:38.752Z,27.80
2019-05-11T12:14:09.723Z,27.51
2019-05-11T12:16:40.848Z,27.36
2019-05-11T12:19:12.080Z,27.78
2019-05-11T12:21:42.987Z,28.16
2019-05-11T12:24:14.274Z,28.06
2019-05-11T12:26:47.840Z,28.46
2019-05-11T12:29:18.956Z,28.03
2019-05-11T12:31:50.016Z,27.79
2019-05-11T12:34:21.190Z,27.88
2019-05-11T12:36:52.340Z,28.39
2019-05-11T12:39:23.546Z,28.51
2019-05-11T12:41:55.064Z,28.47
2019-05-11T12:44:28.368Z,28.50
2019-05-11T12:46:59.308Z,28.55
2019-05-11T12:49:30.463Z,28.82
2019-05-11T12:52:01.956Z,28.83
2019-05-11T12:54:34.111Z,28.76
2019-05-11T12:57:07.737Z,28.40
2019-05-11T12:59:38.276Z,28.34
2019-05-11T13:02:10.508Z,28.33
2019-05-11T13:04:41.958Z,28.58
2019-05-11T13:07:16.461Z,28.71
2019-05-11T13:09:48.274Z,28.22
2019-05-11T13:12:18.840Z,27.88
2019-05-11T13:14:50.121Z,28.22
2019-05-11T13:17:34.221Z,28.67
2019-05-11T13:19:54.655Z,28.97
2019-05-11T13:22:25.781Z,29.39
2019-05-11T13:24:58.843Z,29.43
2019-05-11T13:27:29.834Z,29.48
2019-05-11T13:30:01.032Z,29.46
2019-05-11T13:32:33.066Z,29.06
2019-05-11T13:35:05.120Z,29.22
2019-05-11T13:37:38.461Z,29.21
2019-05-11T13:40:11.164Z,29.11
2019-05-11T13:42:42.249Z,28.68
2019-05-11T13:45:13.661Z,28.39
2019-05-11T13:47:52.613Z,28.47
2019-05-11T13:50:18.305Z,28.63
2019-05-11T13:52:49.752Z,28.72
2019-05-11T13:55:25.107Z,28.91
2019-05-11T13:57:57.890Z,29.13
2019-05-11T14:00:29.934Z,29.35
2019-05-11T14:03:03.136Z,29.39
2019-05-11T14:05:34.377Z,29.44
2019-05-11T14:08:07.876Z,29.63
2019-05-11T14:10:38.596Z,29.60
2019-05-11T14:13:09.857Z,29.52
2019-05-11T14:15:41.023Z,29.23
2019-05-11T14:18:12.252Z,29.25
2019-05-11T14:20:43.629Z,29.00
2019-05-11T14:23:14.796Z,28.56
2019-05-11T14:25:48.467Z,28.28
2019-05-11T14:28:19.883Z,27.86
2019-05-11T14:30:51.104Z,27.53
2019-05-11T14:33:22.243Z,27.41
2019-05-11T14:35:53.506Z,27.30
2019-05-11T14:38:24.545Z,27.09
2019-05-11T14:40:55.709Z,26.92
2019-05-11T14:43:27.724Z,26.75
2019-05-11T14:45:59.055Z,26.84
2019-05-11T14:48:31.454Z,26.94
2019-05-11T14:51:02.624Z,26.88
2019-05-11T14:53:34.118Z,27.04
2019-05-11T14:56:05.277Z,27.13
2019-05-11T14:58:38.613Z,27.09
2019-05-11T15:01:09.257Z,27.17
2019-05-11T15:03:40.173Z,27.26
2019-05-11T15:06:11.253Z,27.11
2019-05-11T15:08:42.323Z,27.10
2019-05-11T15:11:13.294Z,27.22
2019-05-11T15:13:44.522Z,27.25
2019-05-11T15:16:15.817Z,26.97
2019-05-11T15:18:48.442Z,26.82
2019-05-11T15:21:19.543Z,26.78
2019-05-11T15:23:50.668Z,26.69
2019-05-11T15:26:21.751Z,26.55
2019-05-11T15:28:52.945Z,26.42
2019-05-11T15:31:23.943Z,26.27
2019-05-11T15:33:55.579Z,26.05
2019-05-11T15:36:28.566Z,25.91
2019-05-11T15:38:59.842Z,25.77
2019-05-11T15:41:30.872Z,25.56
2019-05-11T15:44:02.486Z,25.24
2019-05-11T15:46:34.062Z,25.09
2019-05-11T15:49:05.385Z,25.02
2019-05-11T15:51:38.283Z,24.91
2019-05-11T15:54:09.384Z,24.82
2019-05-11T15:56:41.199Z,24.69
2019-05-11T15:59:12.647Z,24.62
2019-05-11T16:01:43.769Z,24.59
2019-05-11T16:04:14.844Z,24.48
2019-05-11T16:06:45.955Z,24.48
2019-05-11T16:09:18.389Z,24.52
2019-05-11T16:11:49.648Z,24.55
2019-05-11T16:14:20.950Z,24.45
2019-05-11T16:16:52.079Z,24.38
2019-05-11T16:19:23.164Z,24.30
2019-05-11T16:21:54.609Z,24.23
2019-05-11T16:24:25.730Z,24.21
2019-05-11T16:26:58.204Z,24.16
2019-05-11T16:29:29.338Z,24.13
2019-05-11T16:32:00.880Z,24.09
2019-05-11T16:34:31.960Z,24.01
2019-05-11T16:37:05.385Z,23.87
2019-05-11T16:39:35.791Z,23.74
2019-05-11T16:42:08.499Z,23.55
2019-05-11T16:44:40.093Z,23.39
2019-05-11T16:47:11.566Z,23.23
2019-05-11T16:49:44.498Z,23.14
2019-05-11T16:52:15.676Z,22.98
2019-05-11T16:54:47.772Z,22.85
2019-05-11T16:57:18.952Z,22.77
2019-05-11T16:59:49.921Z,22.57
2019-05-11T17:02:21.260Z,22.47
2019-05-11T17:04:52.552Z,22.33
2019-05-11T17:07:23.526Z,22.21
2019-05-11T17:09:54.760Z,22.08
2019-05-11T17:12:28.539Z,21.98
2019-05-11T17:14:59.610Z,21.86
2019-05-11T17:17:30.746Z,21.76
2019-05-11T17:20:01.833Z,21.64
2019-05-11T17:22:33.109Z,21.60
2019-05-11T17:25:08.376Z,21.52
2019-05-11T17:27:38.973Z,21.40
2019-05-11T17:30:11.529Z,21.30
2019-05-11T17:32:42.610Z,21.20
2019-05-11T17:35:14.266Z,21.08
2019-05-11T17:37:48.224Z,20.96
2019-05-11T17:40:23.110Z,20.83
2019-05-11T17:42:53.880Z,20.74
2019-05-11T17:45:24.934Z,20.67
2019-05-11T17:47:57.940Z,20.53
2019-05-11T17:50:28.810Z,20.53
2019-05-11T17:53:00.029Z,20.44
2019-05-11T17:55:31.279Z,20.35
2019-05-11T17:58:02.538Z,20.25
2019-05-11T18:00:33.962Z,20.13
2019-05-11T18:03:07.464Z,20.03
2019-05-11T18:05:38.067Z,19.99
2019-05-11T18:08:09.437Z,19.90
2019-05-11T18:10:40.398Z,19.84
2019-05-11T18:13:11.490Z,19.71
2019-05-11T18:15:42.740Z,19.62
2019-05-11T18:18:14.105Z,19.54
2019-05-11T18:20:45.682Z,19.45
2019-05-11T18:23:17.615Z,19.37
2019-05-11T18:25:49.189Z,19.30
2019-05-11T18:28:20.424Z,19.26
2019-05-11T18:30:51.478Z,19.24
2019-05-11T18:33:22.488Z,19.21
2019-05-11T18:35:53.722Z,19.17
2019-05-11T18:38:24.878Z,19.11
2019-05-11T18:40:58.037Z,19.10
2019-05-11T18:43:28.896Z,19.03
2019-05-11T18:46:00.172Z,19.00
2019-05-11T18:48:31.388Z,18.98
2019-05-11T18:51:02.651Z,18.97
2019-05-11T18:53:33.735Z,18.93
2019-05-11T18:56:04.825Z,18.91
2019-05-11T18:58:38.229Z,18.90
2019-05-11T19:01:08.807Z,18.89
2019-05-11T19:03:40.105Z,18.86
2019-05-11T19:06:11.357Z,18.80
2019-05-11T19:08:42.620Z,18.77
2019-05-11T19:11:13.796Z,18.72
2019-05-11T19:13:45.042Z,18.71
2019-05-11T19:16:18.629Z,18.66
2019-05-11T19:18:50.828Z,18.64
2019-05-11T19:21:22.197Z,18.64
2019-05-11T19:23:53.819Z,18.61
2019-05-11T19:26:24.811Z,18.60
2019-05-11T19:28:57.869Z,18.52
2019-05-11T19:31:28.643Z,18.53
2019-05-11T19:33:59.717Z,18.55
2019-05-11T19:36:30.868Z,18.57
2019-05-11T19:39:01.942Z,18.58
2019-05-11T19:41:33.374Z,18.58
2019-05-11T19:44:05.525Z,18.56
2019-05-11T19:46:38.770Z,18.53
2019-05-11T19:49:10.477Z,18.51
2019-05-11T19:51:42.657Z,18.51
2019-05-11T19:54:14.104Z,18.51
2019-05-11T19:56:46.916Z,18.51
2019-05-11T19:59:18.023Z,18.49
2019-05-11T20:01:49.112Z,18.44
2019-05-11T20:04:20.181Z,18.38
2019-05-11T20:06:51.336Z,18.30
2019-05-11T20:09:22.643Z,18.27
2019-05-11T20:11:53.893Z,18.20
2019-05-11T20:14:25.029Z,18.21
2019-05-11T20:16:56.745Z,18.19
2019-05-11T20:19:28.343Z,18.20
2019-05-11T20:21:59.521Z,18.16
2019-05-11T20:24:30.613Z,18.18
2019-05-11T20:27:01.838Z,18.08
2019-05-11T20:29:33.072Z,18.02
2019-05-11T20:32:04.357Z,18.10
2019-05-11T20:34:38.034Z,18.05
2019-05-11T20:37:09.369Z,18.05
2019-05-11T20:39:40.502Z,18.01
2019-05-11T20:42:11.782Z,17.98
2019-05-11T20:44:43.007Z,17.91
2019-05-11T20:47:14.370Z,17.89
2019-05-11T20:49:48.002Z,17.89
2019-05-11T20:52:18.288Z,17.89
2019-05-11T20:54:49.487Z,17.83
2019-05-11T20:57:20.763Z,17.80
2019-05-11T20:59:51.727Z,17.78
2019-05-11T21:02:23.081Z,17.76
2019-05-11T21:04:55.375Z,17.79
2019-05-11T21:07:28.028Z,17.71
2019-05-11T21:09:59.780Z,17.67
2019-05-11T21:12:30.814Z,17.66
2019-05-11T21:15:01.858Z,17.61
2019-05-11T21:17:33.007Z,17.62
2019-05-11T21:20:05.767Z,17.62
2019-05-11T21:22:40.107Z,17.60
2019-05-11T21:25:11.017Z,17.53
2019-05-11T21:27:42.121Z,17.51
2019-05-11T21:30:14.043Z,17.41
2019-05-11T21:32:45.019Z,17.42
2019-05-11T21:35:18.899Z,17.40
2019-05-11T21:37:49.178Z,17.26
2019-05-11T21:40:20.477Z,17.29
2019-05-11T21:42:51.662Z,17.29
2019-05-11T21:45:22.901Z,17.24
2019-05-11T21:47:54.180Z,17.17
2019-05-11T21:50:25.186Z,17.14
2019-05-11T21:52:58.781Z,17.14
2019-05-11T21:55:29.560Z,17.14
2019-05-11T21:58:00.909Z,17.07
2019-05-11T22:00:33.062Z,16.99
2019-05-11T22:03:04.360Z,17.03
2019-05-11T22:05:38.042Z,16.99
2019-05-11T22:08:08.741Z,16.97
2019-05-11T22:10:41.274Z,16.96
2019-05-11T22:13:12.768Z,16.86
2019-05-11T22:15:44.197Z,16.80
2019-05-11T22:18:28.236Z,16.81
2019-05-11T22:20:48.551Z,16.78
2019-05-11T22:23:20.022Z,16.69
2019-05-11T22:25:51.267Z,16.56
2019-05-11T22:28:22.526Z,16.54
2019-05-11T22:30:53.654Z,16.42
2019-05-11T22:33:25.039Z,16.40
2019-05-11T22:35:58.560Z,16.38
2019-05-11T22:38:30.735Z,16.34
2019-05-11T22:41:01.761Z,16.29
2019-05-11T22:43:33.269Z,16.24
2019-05-11T22:46:04.220Z,16.22
2019-05-11T22:48:35.516Z,16.20
2019-05-11T22:51:08.064Z,16.16
2019-05-11T22:53:44.775Z,16.15
2019-05-11T22:56:11.948Z,16.10
2019-05-11T22:58:42.834Z,16.00
2019-05-11T23:01:13.868Z,15.98
2019-05-11T23:03:45.120Z,15.94
2019-05-11T23:06:18.205Z,15.86
2019-05-11T23:08:53.867Z,15.83
2019-05-11T23:11:22.632Z,15.78
2019-05-11T23:13:53.726Z,15.70
2019-05-11T23:16:24.951Z,15.66
2019-05-11T23:18:56.226Z,15.61
2019-05-11T23:21:30.016Z,15.56
2019-05-11T23:24:00.191Z,15.51
2019-05-11T23:26:32.262Z,15.47
2019-05-11T23:29:03.560Z,15.41
2019-05-11T23:31:34.692Z,15.34
2019-05-11T23:34:08.181Z,15.28
2019-05-11T23:36:38.775Z,15.26
2019-05-11T23:39:10.591Z,15.19
2019-05-11T23:41:41.718Z,15.18
2019-05-11T23:44:12.733Z,15.17
2019-05-11T23:46:43.883Z,15.18
2019-05-11T23:49:15.076Z,15.12
2019-05-11T23:51:47.793Z,15.10
2019-05-11T23:54:20.414Z,15.09
2019-05-11T23:56:51.565Z,15.02
2019-05-11T23:59:22.734Z,14.95
